Time;durP1;ratioP1;P1;durP2;ratioP2;P2;SDS_P1;SDS_P2;PMS_P1;PMS_P2;Temp;Humidity;BMP_temperature;BMP_pressure;BME280_temperature;BME280_humidity;BME280_pressure;Samples;Min_cycle;Max_cycle;Signal;HPM_P1;HPM_P2
2024/01/09 00:00:39;;;;;;;;;26.25;22.25;;;;;-0.81;93.34;102322.31;5014440;28;45371;-83
2024/01/09 00:03:05;;;;;;;;;30.75;26.00;;;;;-0.32;92.13;102416.97;4999401;28;47471;-83
2024/01/09 00:05:43;;;;;;;;;30.75;22.75;;;;;0.30;92.86;102528.50;5000840;28;45468;-83
2024/01/09 00:08:09;;;;;;;;;28.75;26.25;;;;;0.04;92.44;102443.78;4992213;28;45445;-83
2024/01/09 00:10:41;;;;;;;;;23.00;19.00;;;;;0.12;92.33;102460.47;5004594;28;45718;-83
2024/01/09 00:13:16;;;;;;;;;21.00;19.75;;;;;-0.23;92.67;102405.03;5020767;28;45771;-83
2024/01/09 00:15:42;;;;;;;;;28.50;20.00;;;;;-0.68;90.83;102303.56;5009310;28;45503;-83
2024/01/09 00:18:07;;;;;;;;;28.75;21.50;;;;;0.10;93.72;102438.72;5004976;28;45310;-83
2024/01/09 00:20:32;;;;;;;;;34.50;25.00;;;;;-0.66;92.69;102339.97;4995853;28;45377;-82
2024/01/09 00:23:00;;;;;;;;;26.25;19.25;;;;;0.02;91.03;102448.09;5000901;28;46454;-83
2024/01/09 00:25:25;;;;;;;;;23.50;22.00;;;;;-0.31;90.43;102390.13;4998423;28;45260;-83
2024/01/09 00:27:51;;;;;;;;;24.25;20.25;;;;;0.34;89.69;102461.78;4993470;28;45394;-82
2024/01/09 00:30:16;;;;;;;;;20.25;19.50;;;;;-0.30;90.25;102358.13;5019120;28;45325;-82
2024/01/09 00:32:46;;;;;;;;;22.25;16.00;;;;;-0.76;86.85;102299.94;4995861;28;45404;-82
2024/01/09 00:35:14;;;;;;;;;25.00;16.75;;;;;0.39;87.26;102476.63;4999600;28;45742;-82
2024/01/09 00:37:40;;;;;;;;;23.50;20.25;;;;;0.03;87.95;102448.97;5012821;28;45322;-82
2024/01/09 00:40:06;;;;;;;;;22.25;17.75;;;;;-0.43;88.45;102363.88;5000523;28;45375;-82
2024/01/09 00:42:34;;;;;;;;;31.00;19.00;;;;;-0.25;88.64;102390.28;5005443;28;45689;-82
2024/01/09 00:45:00;;;;;;;;;19.75;16.50;;;;;0.30;86.84;102468.66;5026658;28;45535;-81
2024/01/09 00:47:27;;;;;;;;;17.50;15.75;;;;;-0.59;86.20;102293.38;5000701;28;45455;-81
2024/01/09 00:49:52;;;;;;;;;25.50;19.25;;;;;-0.24;84.99;102387.72;4996491;28;45842;-82
2024/01/09 00:52:20;;;;;;;;;15.50;14.50;;;;;-0.27;86.15;102397.16;4987789;28;47927;-82
2024/01/09 00:54:46;;;;;;;;;17.00;15.00;;;;;-0.27;84.25;102381.56;4987439;28;45334;-81
2024/01/09 00:57:11;;;;;;;;;19.00;15.00;;;;;-0.45;86.26;102324.84;4992447;28;45311;-81
2024/01/09 00:59:37;;;;;;;;;19.75;13.50;;;;;0.03;86.55;102412.56;5009163;28;45399;-82
2024/01/09 01:02:03;;;;;;;;;17.00;17.00;;;;;-0.52;84.81;102313.44;4990585;28;45452;-82
2024/01/09 01:04:31;;;;;;;;;17.50;15.50;;;;;-0.14;83.78;102384.47;5005712;28;45654;-82
2024/01/09 01:06:57;;;;;;;;;22.25;17.25;;;;;0.04;84.40;102453.31;4993683;28;45409;-82
2024/01/09 01:09:31;;;;;;;;;17.25;12.75;;;;;0.25;83.68;102493.69;4996579;28;45478;-82
2024/01/09 01:11:56;;;;;;;;;14.50;12.25;;;;;-0.58;84.76;102308.13;4992442;28;45626;-81
2024/01/09 01:14:23;;;;;;;;;14.25;13.50;;;;;-0.71;82.87;102324.28;4995753;28;45387;-81
2024/01/09 01:16:49;;;;;;;;;16.25;12.25;;;;;0.23;83.79;102461.56;4990019;28;45388;-82
2024/01/09 01:19:14;;;;;;;;;15.25;13.50;;;;;-0.35;82.97;102377.91;4996968;28;45385;-82
2024/01/09 01:21:40;;;;;;;;;20.75;15.50;;;;;-0.34;82.67;102387.47;4988659;28;46941;-82
2024/01/09 01:24:05;;;;;;;;;14.25;12.75;;;;;-0.29;82.88;102368.53;5000110;28;45416;-82
2024/01/09 01:26:32;;;;;;;;;16.00;13.75;;;;;-0.56;82.35;102310.75;4993570;28;45330;-83
2024/01/09 01:29:01;;;;;;;;;13.00;12.25;;;;;-0.72;81.96;102278.34;4993549;28;45482;-83
2024/01/09 01:31:26;;;;;;;;;12.00;12.00;;;;;-0.13;82.00;102420.00;4998071;28;46463;-83
2024/01/09 01:33:52;;;;;;;;;12.75;11.50;;;;;-0.33;82.98;102402.22;4999870;28;45411;-82
2024/01/09 01:36:18;;;;;;;;;16.75;12.00;;;;;0.17;82.87;102465.75;5012275;28;45382;-82
2024/01/09 01:38:43;;;;;;;;;12.00;10.50;;;;;-0.47;83.18;102365.53;4986733;28;45925;-82
2024/01/09 01:41:09;;;;;;;;;12.75;9.00;;;;;-0.88;81.48;102291.84;4998903;28;47680;-82
2024/01/09 01:43:35;;;;;;;;;14.25;11.50;;;;;-0.50;82.70;102357.66;4997276;28;45720;-83
2024/01/09 01:46:03;;;;;;;;;13.75;12.00;;;;;-0.66;82.36;102343.44;4988545;28;45515;-83
2024/01/09 01:48:30;;;;;;;;;15.50;12.75;;;;;-0.27;82.34;102372.06;4993700;28;45463;-84
2024/01/09 01:50:57;;;;;;;;;14.50;11.75;;;;;-0.32;82.65;102372.78;4997851;28;46429;-83
2024/01/09 01:53:26;;;;;;;;;14.25;12.25;;;;;-0.26;82.36;102430.97;4997351;28;45397;-84
2024/01/09 01:55:52;;;;;;;;;16.75;11.25;;;;;0.40;81.36;102525.25;4998088;28;45663;-83
2024/01/09 01:58:21;;;;;;;;;20.25;14.50;;;;;-0.12;81.90;102415.69;4984834;28;45593;-84
2024/01/09 02:00:47;;;;;;;;;18.00;15.25;;;;;-0.84;80.49;102279.78;4997814;28;48259;-83
2024/01/09 02:03:14;;;;;;;;;11.00;11.00;;;;;0.14;80.48;102452.66;4997623;28;45969;-83
2024/01/09 02:05:42;;;;;;;;;13.00;10.75;;;;;0.09;81.07;102467.31;4999431;28;45292;-84
2024/01/09 02:08:09;;;;;;;;;11.00;8.75;;;;;-0.93;80.32;102285.66;4999110;28;45344;-84
2024/01/09 02:10:37;;;;;;;;;9.00;9.00;;;;;-0.39;80.81;102400.34;4997269;28;48391;-83
2024/01/09 02:13:09;;;;;;;;;10.00;8.00;;;;;-0.08;79.27;102420.13;5003300;28;45449;-83
2024/01/09 02:15:39;;;;;;;;;10.50;10.50;;;;;-0.85;80.61;102285.84;5004639;28;45433;-84
2024/01/09 02:18:04;;;;;;;;;15.00;12.25;;;;;-0.33;81.19;102403.13;4992711;28;45828;-84
2024/01/09 02:20:32;;;;;;;;;14.75;9.50;;;;;-0.16;81.19;102401.75;5001259;28;47074;-83
2024/01/09 02:22:58;;;;;;;;;14.25;13.75;;;;;-0.07;80.85;102440.09;4985366;28;45417;-83
2024/01/09 02:25:24;;;;;;;;;12.75;12.50;;;;;-0.22;81.85;102393.81;5000412;28;45626;-83
2024/01/09 02:28:14;;;;;;;;;13.00;11.75;;;;;0.22;80.95;102479.75;5013970;28;45514;-83
2024/01/09 02:30:40;;;;;;;;;18.50;11.50;;;;;0.17;81.22;102457.94;4986112;28;47129;-83
2024/01/09 02:33:08;;;;;;;;;14.00;13.00;;;;;-0.06;80.62;102424.50;4998262;28;45339;-83
2024/01/09 02:35:33;;;;;;;;;24.50;13.00;;;;;0.09;81.08;102444.78;4999790;28;45342;-84
2024/01/09 02:38:02;;;;;;;;;16.00;13.25;;;;;-0.54;81.37;102380.09;4994495;28;45485;-84
2024/01/09 02:40:28;;;;;;;;;12.75;12.75;;;;;-0.30;80.70;102369.41;4995855;28;46309;-83
2024/01/09 02:42:54;;;;;;;;;15.00;12.25;;;;;-0.87;80.02;102303.97;5007455;28;45388;-84
2024/01/09 02:45:19;;;;;;;;;9.00;9.00;;;;;0.34;79.75;102480.88;4997645;28;45436;-84
2024/01/09 02:47:45;;;;;;;;;15.75;13.25;;;;;-0.80;80.93;102307.59;4996084;28;45588;-83
2024/01/09 02:50:12;;;;;;;;;14.75;11.00;;;;;-0.86;81.96;102303.16;4996124;28;47200;-83
2024/01/09 02:52:37;;;;;;;;;18.00;15.00;;;;;0.02;80.74;102439.41;4997065;28;45343;-83
2024/01/09 02:55:03;;;;;;;;;15.50;13.25;;;;;0.41;81.20;102519.22;4997050;28;45835;-84
2024/01/09 02:57:29;;;;;;;;;15.00;12.75;;;;;-0.80;81.98;102294.63;5008284;28;45696;-84
2024/01/09 02:59:54;;;;;;;;;21.25;12.50;;;;;0.02;80.61;102444.59;4988151;28;46315;-84
2024/01/09 03:02:22;;;;;;;;;15.25;13.00;;;;;-0.31;79.39;102359.81;5003896;28;45475;-83
2024/01/09 03:04:52;;;;;;;;;21.00;15.75;;;;;0.02;80.36;102416.88;4983498;28;45548;-83
2024/01/09 03:07:17;;;;;;;;;17.50;12.00;;;;;-0.11;79.96;102391.47;4987360;28;45529;-84
2024/01/09 03:09:43;;;;;;;;;10.00;10.00;;;;;0.24;80.88;102460.72;4995451;28;46804;-84
2024/01/09 03:12:08;;;;;;;;;15.50;12.50;;;;;0.40;80.66;102516.56;4999046;28;45391;-82
2024/01/09 03:14:37;;;;;;;;;18.50;15.00;;;;;0.33;79.95;102468.69;4983174;28;45473;-83
2024/01/09 03:17:04;;;;;;;;;12.00;11.00;;;;;-0.43;81.03;102362.16;4991230;28;45469;-83
2024/01/09 03:19:30;;;;;;;;;12.00;12.00;;;;;-0.07;80.76;102388.09;4998728;28;46561;-82
2024/01/09 03:21:55;;;;;;;;;11.25;9.50;;;;;-0.10;79.51;102388.88;4985731;28;45327;-82
2024/01/09 03:24:27;;;;;;;;;13.50;11.50;;;;;-0.74;78.69;102279.16;4997777;28;45525;-81
2024/01/09 03:26:53;;;;;;;;;13.00;8.00;;;;;0.18;79.63;102446.69;4996320;28;46151;-82
2024/01/09 03:29:19;;;;;;;;;12.25;9.50;;;;;-0.95;78.67;102251.00;4985220;28;45527;-83
2024/01/09 03:31:44;;;;;;;;;15.75;15.00;;;;;-0.05;80.17;102441.00;4998685;28;45600;-82
2024/01/09 03:34:10;;;;;;;;;13.00;9.00;;;;;-0.46;79.76;102323.13;4987025;28;45268;-83
2024/01/09 03:36:38;;;;;;;;;15.00;10.75;;;;;0.15;80.04;102480.44;4998280;28;45352;-83
2024/01/09 03:39:04;;;;;;;;;15.00;12.00;;;;;-0.75;79.77;102303.38;4997090;28;46273;-83
2024/01/09 03:41:32;;;;;;;;;21.75;14.25;;;;;-0.56;80.76;102352.34;4985694;28;45475;-83
2024/01/09 03:43:58;;;;;;;;;19.50;13.75;;;;;-0.54;80.64;102348.03;4993341;28;45471;-83
2024/01/09 03:46:28;;;;;;;;;12.75;12.75;;;;;-0.16;79.36;102427.75;4995112;28;45412;-83
2024/01/09 03:49:06;;;;;;;;;14.00;11.50;;;;;-0.71;80.12;102313.88;4996292;28;47651;-83
2024/01/09 03:51:31;;;;;;;;;12.75;9.25;;;;;-0.05;80.96;102446.19;4996575;28;45597;-82
2024/01/09 03:53:57;;;;;;;;;17.50;14.25;;;;;-0.77;80.37;102284.28;4996947;28;45369;-84
2024/01/09 03:56:29;;;;;;;;;12.50;10.50;;;;;-0.12;79.96;102397.50;4997740;28;45294;-84
2024/01/09 03:58:57;;;;;;;;;14.75;10.75;;;;;-0.56;80.62;102309.03;4998524;28;48534;-84
2024/01/09 04:01:22;;;;;;;;;18.25;9.75;;;;;-0.27;80.39;102389.38;5013559;28;45512;-84
2024/01/09 04:03:48;;;;;;;;;13.50;11.25;;;;;-0.25;79.57;102354.75;4997269;28;45453;-83
2024/01/09 04:06:13;;;;;;;;;12.00;12.00;;;;;-0.29;79.84;102381.53;5010104;28;45498;-83
2024/01/09 04:08:42;;;;;;;;;11.00;10.25;;;;;-0.74;80.54;102272.25;4987727;28;47063;-83
2024/01/09 04:11:13;;;;;;;;;12.50;11.25;;;;;-0.54;79.66;102316.84;4982953;28;45765;-83
2024/01/09 04:13:42;;;;;;;;;14.50;12.00;;;;;-0.76;79.43;102296.44;5007781;28;45537;-84
2024/01/09 04:16:13;;;;;;;;;15.50;12.50;;;;;0.14;79.42;102455.28;4998298;28;45414;-83
2024/01/09 04:18:39;;;;;;;;;17.00;13.25;;;;;0.16;80.25;102454.47;5000595;28;45321;-84
2024/01/09 04:21:07;;;;;;;;;18.50;16.25;;;;;-0.81;79.58;102311.91;4993801;28;45327;-83
2024/01/09 04:23:32;;;;;;;;;18.75;12.75;;;;;0.19;79.41;102453.66;4994472;28;45267;-83
2024/01/09 04:25:58;;;;;;;;;11.75;11.75;;;;;0.07;80.63;102436.06;4987204;28;45550;-83
2024/01/09 04:28:23;;;;;;;;;11.75;10.75;;;;;-0.87;80.55;102305.69;5011802;28;46727;-83
2024/01/09 04:30:49;;;;;;;;;13.00;10.25;;;;;-0.93;80.25;102266.59;5003314;28;45336;-83
2024/01/09 04:33:14;;;;;;;;;10.00;10.00;;;;;-0.22;81.98;102413.72;5001492;28;45376;-83
2024/01/09 04:35:40;;;;;;;;;13.50;11.25;;;;;0.18;80.49;102460.59;5001073;28;45253;-82
2024/01/09 04:38:05;;;;;;;;;13.50;13.00;;;;;-0.81;80.03;102296.31;4996480;28;47642;-82
2024/01/09 04:40:30;;;;;;;;;22.00;14.75;;;;;-0.64;80.35;102318.38;5024235;28;45577;-82
2024/01/09 04:42:56;;;;;;;;;13.50;12.00;;;;;-0.31;81.05;102403.13;5003199;28;45487;-82
2024/01/09 04:45:21;;;;;;;;;19.75;13.50;;;;;-0.50;80.48;102339.47;5001015;28;45825;-82
2024/01/09 04:47:46;;;;;;;;;14.00;11.50;;;;;-0.14;81.61;102423.47;4989211;28;45464;-81
2024/01/09 04:50:16;;;;;;;;;16.25;11.25;;;;;-0.82;81.56;102278.97;4997474;28;45422;-81
2024/01/09 04:52:41;;;;;;;;;15.50;13.75;;;;;-0.88;83.83;102265.00;5012511;28;45398;-82
2024/01/09 04:55:07;;;;;;;;;14.75;12.50;;;;;-0.84;79.83;102304.06;4993038;28;45446;-81
2024/01/09 04:57:33;;;;;;;;;11.75;11.25;;;;;0.27;81.88;102494.59;4999079;28;48004;-81
2024/01/09 05:00:01;;;;;;;;;20.00;12.75;;;;;-0.73;79.91;102273.13;4997063;28;45331;-81
2024/01/09 05:02:26;;;;;;;;;15.75;14.25;;;;;-0.64;80.43;102300.19;4981235;28;45354;-82
2024/01/09 05:04:54;;;;;;;;;21.00;13.75;;;;;-0.17;81.29;102383.53;4998023;28;45435;-82
2024/01/09 05:07:19;;;;;;;;;16.50;12.50;;;;;-0.67;80.76;102331.31;4998931;28;47296;-81
2024/01/09 05:09:49;;;;;;;;;15.50;15.50;;;;;-1.02;81.11;102251.72;4995744;28;45510;-82
2024/01/09 05:12:14;;;;;;;;;15.25;12.25;;;;;-1.00;81.49;102233.56;4991308;28;45418;-81
2024/01/09 05:14:45;;;;;;;;;19.50;13.50;;;;;-0.40;81.02;102330.16;4993845;28;45374;-82
2024/01/09 05:17:17;;;;;;;;;16.00;15.00;;;;;0.00;81.02;102426.38;4998654;28;46209;-81
2024/01/09 05:19:48;;;;;;;;;15.25;13.25;;;;;-0.54;80.53;102342.84;4993443;28;45365;-81
2024/01/09 05:22:18;;;;;;;;;17.75;14.50;;;;;-0.79;80.90;102302.44;4997965;28;45568;-82
2024/01/09 05:24:44;;;;;;;;;16.00;13.25;;;;;-0.07;80.98;102427.97;4983726;28;45697;-82
2024/01/09 05:27:09;;;;;;;;;17.75;13.50;;;;;-0.98;81.28;102279.47;4995320;28;46921;-82
2024/01/09 05:29:38;;;;;;;;;21.25;13.50;;;;;-1.21;80.99;102208.00;5002215;28;45407;-82
2024/01/09 05:32:17;;;;;;;;;3.50;0.00;;;;;-0.05;82.11;102415.00;5001197;28;45300;-82
2024/01/09 05:34:42;;;;;;;;;16.25;15.00;;;;;-1.25;81.26;102216.56;4998681;28;45457;-80
2024/01/09 05:37:08;;;;;;;;;15.75;12.75;;;;;-0.85;80.84;102299.69;4998306;28;47281;-80
2024/01/09 05:39:33;;;;;;;;;16.00;15.00;;;;;0.16;80.32;102454.47;5000038;28;45390;-80
2024/01/09 05:41:59;;;;;;;;;16.00;12.00;;;;;-0.90;82.36;102258.88;4986331;28;45423;-80
2024/01/09 05:44:25;;;;;;;;;19.00;14.75;;;;;-0.75;82.23;102308.56;4988207;28;45424;-80
2024/01/09 05:46:57;;;;;;;;;13.50;12.00;;;;;-0.34;82.24;102343.28;4992418;28;47146;-80
2024/01/09 05:49:25;;;;;;;;;17.00;12.25;;;;;0.00;82.25;102419.44;5019851;28;45575;-80
2024/01/09 05:51:57;;;;;;;;;12.50;10.00;;;;;0.00;81.88;102419.44;5005816;28;45385;-80
2024/01/09 05:54:22;;;;;;;;;28.75;18.75;;;;;0.00;81.94;102408.19;5000723;28;45566;-82
2024/01/09 05:56:48;;;;;;;;;32.25;18.00;;;;;-0.67;80.47;102339.09;5003800;28;46833;-83
2024/01/09 05:59:15;;;;;;;;;25.50;19.25;;;;;-0.12;80.92;102415.69;5007337;28;45455;-82
2024/01/09 06:01:40;;;;;;;;;19.00;14.25;;;;;-0.35;80.92;102360.59;5006082;28;45326;-82
2024/01/09 06:04:06;;;;;;;;;20.00;14.00;;;;;-0.65;81.07;102294.94;5008860;28;45630;-81
2024/01/09 06:06:31;;;;;;;;;20.25;15.50;;;;;-0.30;81.18;102379.78;5007173;28;46129;-80
2024/01/09 06:08:57;;;;;;;;;19.25;12.50;;;;;-0.18;80.99;102403.44;4996578;28;45524;-81
2024/01/09 06:11:22;;;;;;;;;22.00;17.50;;;;;-0.04;80.69;102401.16;4999326;28;45549;-84
2024/01/09 06:13:48;;;;;;;;;22.00;16.00;;;;;-0.54;80.14;102355.84;5005057;28;45501;-82
2024/01/09 06:16:13;;;;;;;;;20.50;20.50;;;;;-0.76;80.47;102284.34;5008612;28;47109;-81
2024/01/09 06:18:38;;;;;;;;;17.75;17.00;;;;;0.03;79.76;102416.06;5008507;28;45431;-83
2024/01/09 06:21:04;;;;;;;;;22.00;17.50;;;;;-0.66;80.63;102329.59;5005061;28;45373;-81
2024/01/09 06:23:29;;;;;;;;;20.25;17.50;;;;;0.21;79.71;102498.78;4999510;28;45393;-81
2024/01/09 06:25:55;;;;;;;;;18.75;13.75;;;;;-0.70;79.49;102300.06;4997175;28;47116;-80
2024/01/09 06:28:20;;;;;;;;;19.50;16.75;;;;;-0.90;79.56;102285.75;5007521;28;45337;-81
2024/01/09 06:30:48;;;;;;;;;13.25;11.00;;;;;0.03;79.98;102465.47;5005265;28;46198;-80
2024/01/09 06:33:13;;;;;;;;;18.50;16.50;;;;;-0.78;80.76;102313.69;5001543;28;45507;-80
2024/01/09 06:35:38;;;;;;;;;21.50;16.50;;;;;-0.32;79.69;102394.44;5004686;28;45572;-80
2024/01/09 06:38:04;;;;;;;;;36.50;27.50;;;;;-1.03;79.35;102244.75;5006703;28;45424;-80
2024/01/09 06:40:29;;;;;;;;;21.25;15.50;;;;;-0.18;79.24;102436.38;5007180;28;45328;-80
2024/01/09 06:42:55;;;;;;;;;26.25;22.75;;;;;-0.60;80.56;102342.72;5006204;28;45576;-80
2024/01/09 06:45:20;;;;;;;;;20.75;16.75;;;;;-0.32;80.95;102386.66;5007309;28;47766;-80
2024/01/09 06:47:46;;;;;;;;;17.50;17.00;;;;;-0.32;80.22;102378.84;5003947;28;45475;-80
2024/01/09 06:50:13;;;;;;;;;20.50;16.50;;;;;-0.02;80.79;102422.84;5006244;28;45838;-80
2024/01/09 06:52:41;;;;;;;;;20.00;17.25;;;;;-0.74;80.77;102311.22;5005608;28;45460;-80
2024/01/09 06:55:07;;;;;;;;;22.75;20.25;;;;;-0.74;81.30;102326.81;5005886;28;47418;-80
2024/01/09 06:57:35;;;;;;;;;26.00;19.50;;;;;-0.35;81.32;102394.38;5001465;28;45600;-80
2024/01/09 07:00:01;;;;;;;;;20.75;19.00;;;;;-0.47;80.08;102352.53;4994707;28;45328;-79
2024/01/09 07:02:29;;;;;;;;;21.75;20.50;;;;;-0.78;81.22;102309.38;4992881;28;45508;-79
2024/01/09 07:04:57;;;;;;;;;25.25;22.75;;;;;0.25;79.97;102477.22;4998981;28;46253;-78
2024/01/09 07:07:26;;;;;;;;;23.75;19.50;;;;;-0.03;81.35;102442.78;4997112;28;45418;-79
2024/01/09 07:09:51;;;;;;;;;27.00;25.25;;;;;-0.74;81.09;102299.94;4994453;28;45270;-78
2024/01/09 07:12:18;;;;;;;;;27.50;22.75;;;;;0.04;80.85;102424.69;5003270;28;45339;-79
2024/01/09 07:14:44;;;;;;;;;22.75;21.00;;;;;-0.83;79.69;102303.22;4990155;28;45606;-79
2024/01/09 07:17:09;;;;;;;;;21.75;19.25;;;;;-0.23;79.45;102407.66;4990168;28;45401;-79
2024/01/09 07:19:35;;;;;;;;;24.25;19.00;;;;;-0.78;81.25;102322.38;4986505;28;45383;-79
2024/01/09 07:22:01;;;;;;;;;29.50;23.00;;;;;0.06;79.89;102449.03;4993735;28;45531;-79
2024/01/09 07:24:29;;;;;;;;;29.25;19.25;;;;;-0.87;79.14;102300.50;4994227;28;45725;-79
2024/01/09 07:27:02;;;;;;;;;23.00;16.75;;;;;-0.77;78.50;102337.13;4994880;28;45525;-79
2024/01/09 07:29:28;;;;;;;;;21.25;15.50;;;;;-0.94;79.93;102307.28;5005863;28;45516;-79
2024/01/09 07:31:56;;;;;;;;;24.00;20.50;;;;;-0.89;79.35;102284.03;5006191;28;45567;-79
2024/01/09 07:34:25;;;;;;;;;18.00;17.00;;;;;-0.68;78.79;102365.91;5028860;28;46412;-81
2024/01/09 07:36:53;;;;;;;;;24.75;20.00;;;;;-1.23;79.04;102238.22;4996115;28;45527;-81
2024/01/09 07:39:28;;;;;;;;;33.75;23.25;;;;;-0.75;78.71;102355.31;5003401;28;45473;-82
2024/01/09 07:41:53;;;;;;;;;22.00;20.00;;;;;0.10;79.49;102485.53;5006655;28;45481;-81
2024/01/09 07:44:20;;;;;;;;;38.75;24.50;;;;;-1.25;78.02;102258.06;4999216;28;47626;-81
2024/01/09 07:46:50;;;;;;;;;31.50;23.25;;;;;-1.22;78.85;102252.97;5005763;28;46338;-80
2024/01/09 07:49:16;;;;;;;;;25.00;21.75;;;;;-0.82;79.08;102364.69;5007125;28;45750;-80
2024/01/09 07:51:45;;;;;;;;;36.00;29.00;;;;;-0.15;80.58;102439.91;5007507;28;45558;-81
2024/01/09 07:54:13;;;;;;;;;32.50;23.50;;;;;-1.15;79.35;102262.66;5008433;28;47360;-82
2024/01/09 07:56:39;;;;;;;;;26.50;22.50;;;;;0.02;79.92;102468.91;4999265;28;45959;-80
2024/01/09 07:59:04;;;;;;;;;30.25;22.25;;;;;-0.86;79.42;102321.34;4989785;28;45481;-80
2024/01/09 08:01:31;;;;;;;;;26.75;22.25;;;;;-0.63;81.17;102330.53;4995578;28;45535;-80
2024/01/09 08:04:12;;;;;;;;;26.50;21.50;;;;;-0.58;79.25;102344.50;5009177;28;45462;-83
2024/01/09 08:06:37;;;;;;;;;29.50;26.50;;;;;-0.38;79.58;102393.44;4982071;28;45472;-80
2024/01/09 08:09:03;;;;;;;;;22.50;19.50;;;;;-0.75;79.01;102347.53;4993281;28;45288;-80
2024/01/09 08:11:30;;;;;;;;;25.25;20.00;;;;;-1.07;79.01;102318.22;4999401;28;45570;-80
2024/01/09 08:13:56;;;;;;;;;30.50;26.75;;;;;0.09;78.90;102507.22;4995947;28;47339;-80
2024/01/09 08:16:35;;;;;;;;;19.50;15.00;;;;;-0.76;78.65;102330.22;4997802;28;45522;-79
2024/01/09 08:19:00;;;;;;;;;26.25;18.00;;;;;-0.96;78.72;102323.66;4997501;28;45411;-80
2024/01/09 08:21:26;;;;;;;;;32.25;23.25;;;;;-0.16;77.74;102437.25;4999714;28;45534;-81
2024/01/09 08:23:51;;;;;;;;;20.00;19.00;;;;;-0.67;77.45;102400.56;5001017;28;47230;-81
2024/01/09 08:26:17;;;;;;;;;27.50;24.25;;;;;-0.87;77.39;102336.84;5002817;28;45470;-79
2024/01/09 08:28:45;;;;;;;;;24.00;22.00;;;;;-0.36;76.90;102443.75;4990423;28;45427;-80
2024/01/09 08:31:10;;;;;;;;;23.25;21.50;;;;;-0.40;77.65;102434.13;4997837;28;45463;-80
2024/01/09 08:33:36;;;;;;;;;15.75;15.00;;;;;0.05;76.28;102499.28;4998215;28;46337;-80
2024/01/09 08:36:02;;;;;;;;;25.75;20.25;;;;;-0.64;76.63;102372.94;5004561;28;45493;-79
2024/01/09 08:38:27;;;;;;;;;25.25;21.25;;;;;-0.34;75.91;102436.84;5008483;28;45559;-80
2024/01/09 08:40:56;;;;;;;;;20.00;15.75;;;;;-0.67;75.75;102411.81;5008446;28;45697;-79
2024/01/09 08:43:22;;;;;;;;;27.00;19.75;;;;;-0.49;75.32;102424.38;5007539;28;46949;-80
2024/01/09 08:45:49;;;;;;;;;26.50;25.50;;;;;-1.29;76.69;102292.56;5007444;28;45330;-80
2024/01/09 08:48:15;;;;;;;;;29.00;24.50;;;;;-1.01;75.44;102352.09;4999468;28;45349;-80
2024/01/09 08:50:40;;;;;;;;;27.00;23.00;;;;;-0.02;75.55;102525.16;5009640;28;45416;-80
2024/01/09 08:53:06;;;;;;;;;23.25;22.00;;;;;-0.96;75.59;102360.91;5008515;28;45422;-80
2024/01/09 08:55:34;;;;;;;;;25.25;21.50;;;;;-0.17;76.99;102487.53;5000987;28;45634;-80
2024/01/09 08:58:00;;;;;;;;;23.25;22.75;;;;;-0.78;76.01;102408.06;5006672;28;45493;-80
2024/01/09 09:00:25;;;;;;;;;22.00;18.25;;;;;-0.77;75.77;102383.00;4995587;28;45441;-79
2024/01/09 09:02:53;;;;;;;;;34.25;25.75;;;;;-1.12;75.51;102331.09;5002310;28;47360;-80
2024/01/09 09:05:19;;;;;;;;;29.50;25.50;;;;;-1.24;76.23;102314.31;5009642;28;45392;-80
2024/01/09 09:07:47;;;;;;;;;28.75;22.75;;;;;-0.95;77.43;102375.66;5003134;28;45288;-81
2024/01/09 09:10:13;;;;;;;;;29.75;24.75;;;;;0.14;77.44;102552.41;4991761;28;45511;-80
2024/01/09 09:12:41;;;;;;;;;25.50;21.00;;;;;-1.06;76.37;102343.34;4998956;28;46016;-81
2024/01/09 09:15:07;;;;;;;;;34.00;28.75;;;;;-0.49;73.47;102419.16;5000437;28;45234;-81
2024/01/09 09:17:33;;;;;;;;;34.00;29.00;;;;;-0.83;75.32;102375.94;4998410;28;45463;-80
2024/01/09 09:20:11;;;;;;;;;25.50;22.75;;;;;-0.95;73.66;102330.63;5000136;28;45391;-80
2024/01/09 09:22:39;;;;;;;;;30.75;25.25;;;;;-0.12;74.09;102480.69;5011542;28;45461;-79
2024/01/09 09:25:08;;;;;;;;;26.00;21.00;;;;;-0.29;75.70;102450.81;4990572;28;45451;-79
2024/01/09 09:27:33;;;;;;;;;26.25;23.00;;;;;-0.20;75.25;102470.16;4997456;28;45452;-79
2024/01/09 09:29:59;;;;;;;;;30.75;26.50;;;;;-0.02;74.32;102469.66;4998236;28;45499;-79
2024/01/09 09:32:27;;;;;;;;;37.25;23.25;;;;;-0.34;74.59;102445.53;4992843;28;48010;-80
2024/01/09 09:34:53;;;;;;;;;28.50;24.75;;;;;-0.78;73.68;102334.47;4998679;28;45448;-80
2024/01/09 09:37:21;;;;;;;;;27.50;21.50;;;;;-0.21;73.65;102464.88;5013106;28;45528;-80
2024/01/09 09:39:52;;;;;;;;;26.25;23.50;;;;;-0.22;73.65;102422.41;4998916;28;45535;-80
2024/01/09 09:42:23;;;;;;;;;27.75;24.75;;;;;-0.10;73.70;102485.09;4997976;28;45534;-80
2024/01/09 09:44:52;;;;;;;;;23.50;19.00;;;;;0.19;73.03;102484.88;5010975;28;45834;-80
2024/01/09 09:47:21;;;;;;;;;26.25;22.00;;;;;-0.23;72.45;102415.44;5001991;28;45427;-80
2024/01/09 09:49:50;;;;;;;;;30.75;23.75;;;;;-0.44;72.31;102401.97;4989033;28;45379;-80
2024/01/09 09:52:25;;;;;;;;;30.25;23.25;;;;;-0.16;72.96;102416.47;4991971;28;46689;-80
2024/01/09 09:54:52;;;;;;;;;27.50;23.25;;;;;-1.05;71.88;102268.06;4994247;28;45446;-80
2024/01/09 09:57:22;;;;;;;;;32.50;23.00;;;;;-0.49;72.37;102372.41;4997954;28;45440;-80
2024/01/09 09:59:50;;;;;;;;;24.75;22.75;;;;;-0.59;72.70;102393.84;5010943;28;45600;-80
2024/01/09 10:02:24;;;;;;;;;31.25;26.50;;;;;-0.18;72.72;102432.03;5022498;28;47998;-80
2024/01/09 10:04:52;;;;;;;;;28.75;25.25;;;;;-0.30;72.40;102415.28;5002097;28;45531;-80
2024/01/09 10:07:29;;;;;;;;;19.25;19.25;;;;;-0.99;72.65;102269.06;4997300;28;45505;-81
2024/01/09 10:09:59;;;;;;;;;25.75;22.00;;;;;-0.74;71.50;102319.00;4995305;28;45465;-80
2024/01/09 10:12:30;;;;;;;;;31.25;26.25;;;;;-0.93;71.19;102280.47;5011223;28;46804;-80
2024/01/09 10:15:17;;;;;;;;;24.50;23.00;;;;;-0.68;72.39;102321.75;4990693;28;45349;-81
2024/01/09 10:17:52;;;;;;;;;25.75;19.75;;;;;0.26;70.92;102487.63;4996226;28;45465;-80
2024/01/09 10:20:17;;;;;;;;;27.25;25.75;;;;;-0.85;70.76;102325.66;4996401;28;45591;-80
2024/01/09 10:22:46;;;;;;;;;32.00;26.75;;;;;-0.38;70.27;102388.25;5003559;28;47213;-81
2024/01/09 10:25:18;;;;;;;;;27.50;23.50;;;;;-0.54;70.48;102364.50;5001392;28;45638;-79
2024/01/09 10:27:59;;;;;;;;;26.25;22.50;;;;;0.30;71.30;102540.63;4997184;28;45462;-79
2024/01/09 10:30:36;;;;;;;;;30.00;26.75;;;;;0.33;70.06;102558.91;5027382;28;46647;-78
2024/01/09 10:33:09;;;;;;;;;28.00;24.75;;;;;-0.60;71.91;102341.00;4992704;28;46323;-79
2024/01/09 10:35:37;;;;;;;;;26.25;26.00;;;;;-0.15;71.65;102439.03;4993971;28;45409;-81
2024/01/09 10:38:02;;;;;;;;;23.50;22.75;;;;;-0.96;70.52;102314.16;5016950;28;46678;-80
2024/01/09 10:40:35;;;;;;;;;26.75;21.00;;;;;-0.44;71.25;102372.50;4998240;28;45370;-81
2024/01/09 10:43:06;;;;;;;;;32.50;26.00;;;;;-0.39;71.45;102356.16;4997833;28;45478;-81
2024/01/09 10:45:35;;;;;;;;;29.50;25.00;;;;;-0.38;71.34;102386.53;4980274;28;45488;-80
2024/01/09 10:48:04;;;;;;;;;26.00;20.00;;;;;-0.83;70.70;102311.00;4990477;28;45343;-81
2024/01/09 10:50:39;;;;;;;;;49.75;35.75;;;;;0.31;70.09;102496.44;4998675;28;45479;-81
2024/01/09 10:53:06;;;;;;;;;27.75;25.00;;;;;-0.81;71.55;102278.16;4993184;28;47972;-81
2024/01/09 10:55:38;;;;;;;;;29.00;23.25;;;;;-0.18;70.85;102428.56;4988307;28;45370;-80
2024/01/09 10:58:14;;;;;;;;;33.50;26.25;;;;;0.28;70.81;102477.28;4982116;28;45227;-81
2024/01/09 11:00:50;;;;;;;;;30.75;28.00;;;;;0.38;69.78;102526.06;4991143;28;46311;-81
2024/01/09 11:03:22;;;;;;;;;31.25;22.00;;;;;-0.68;69.85;102311.34;5002485;28;47441;-81
2024/01/09 11:05:55;;;;;;;;;26.50;23.25;;;;;-0.95;70.47;102276.09;5004204;28;45397;-80
2024/01/09 11:08:26;;;;;;;;;25.25;23.25;;;;;-1.01;70.41;102266.41;4996059;28;45392;-81
2024/01/09 11:10:53;;;;;;;;;31.00;24.00;;;;;0.33;70.29;102499.03;4993639;28;45428;-80
2024/01/09 11:13:25;;;;;;;;;29.00;26.25;;;;;-0.91;70.10;102276.19;5000999;28;45485;-82